Akaska, South Dakota
Current Conditions -  °F | °C
As of 2:52 PM on Saturday 22 Nov 2014 (Local Time) from KMBG Reporting Station
Clear Clear  
Wind Chill: 43°   Ceiling: Unl
Heat Index: 43°   Visibility: 10mi
Dew Point: 32°   Wind: 3mph
Humidity: 65%   Direction: 90°E
Pressure: 29.33"   Gusts: NA
Location:  45.33°N, 100.12°W
Report Text: KMBG 222052Z AUTO 09003KT 10SM CLR 06/00 A2933 RMK AO2 SLP945 T00610000 56028
Loading
Personal Weather Stations






























Interactive Weather Map New forecast layout! Learn more

10-Day Weather Forecast

Advertisements
Track Severe Weather on mobile